Time;durP1;ratioP1;P1;durP2;ratioP2;P2;SDS_P1;SDS_P2;PMS_P1;PMS_P2;Temp;Humidity;BMP_temperature;BMP_pressure;BME280_temperature;BME280_humidity;BME280_pressure;Samples;Min_cycle;Max_cycle;Signal;HPM_P1;HPM_P2
2022/12/10 00:07:04;;;;;;;0.20;0.10;;;13.90;99.90;;;;;;20876276;28;20500;-75
2022/12/10 00:17:09;;;;;;;0.20;0.10;;;13.80;99.90;;;;;;20874030;28;20408;-75
2022/12/10 00:27:16;;;;;;;0.20;0.10;;;13.60;99.90;;;;;;20875360;28;20586;-76
2022/12/10 00:37:21;;;;;;;0.20;0.10;;;13.60;99.90;;;;;;20898790;28;20406;-77
2022/12/10 00:47:25;;;;;;;0.20;0.10;;;13.50;99.90;;;;;;20939722;28;20402;-77
2022/12/10 00:57:30;;;;;;;0.20;0.10;;;13.40;99.90;;;;;;20937366;28;20427;-77
2022/12/10 01:07:34;;;;;;;0.20;0.10;;;13.30;99.90;;;;;;20938563;28;20394;-76
2022/12/10 01:17:39;;;;;;;0.20;0.10;;;13.30;99.90;;;;;;20936351;28;20405;-77
2022/12/10 01:27:43;;;;;;;0.20;0.10;;;13.30;99.90;;;;;;20934343;28;20398;-77
2022/12/10 01:37:48;;;;;;;0.20;0.00;;;13.20;99.90;;;;;;20932762;28;20942;-76
2022/12/10 01:47:52;;;;;;;0.20;0.10;;;13.30;99.90;;;;;;20933868;28;20406;-76
2022/12/10 01:57:57;;;;;;;0.20;0.10;;;13.50;99.90;;;;;;20937581;28;20418;-75
2022/12/10 02:08:09;;;;;;;0.20;0.10;;;13.40;99.90;;;;;;20933232;28;20413;-76
2022/12/10 02:18:19;;;;;;;0.20;0.08;;;13.30;99.90;;;;;;20934136;28;20416;-77
2022/12/10 02:28:32;;;;;;;0.20;0.10;;;13.30;99.90;;;;;;20916933;28;21283;-76
2022/12/10 02:38:40;;;;;;;0.20;0.10;;;13.30;99.90;;;;;;20939610;28;20405;-74
2022/12/10 02:48:46;;;;;;;0.20;0.10;;;13.20;99.90;;;;;;20865597;28;2456480;-77
2022/12/10 02:59:02;;;;;;;0.20;0.10;;;13.10;99.90;;;;;;20953280;28;20402;-76
2022/12/10 03:09:10;;;;;;;0.20;0.10;;;13.00;99.90;;;;;;20932699;28;20401;-75
2022/12/10 03:19:18;;;;;;;0.20;0.00;;;13.00;99.90;;;;;;20949583;28;20409;-75
2022/12/10 03:29:25;;;;;;;0.20;0.10;;;13.00;99.90;;;;;;20948557;28;20454;-75
2022/12/10 03:39:31;;;;;;;0.20;0.10;;;13.10;99.90;;;;;;20884648;28;20411;-77
2022/12/10 03:49:35;;;;;;;0.20;0.10;;;13.20;99.90;;;;;;20864839;28;20449;-77
2022/12/10 03:59:40;;;;;;;0.20;0.10;;;13.20;99.90;;;;;;20865949;28;20424;-78
2022/12/10 04:09:44;;;;;;;0.20;0.10;;;13.30;99.90;;;;;;20880032;28;20396;-76
2022/12/10 04:19:49;;;;;;;0.20;0.10;;;13.50;99.90;;;;;;20863723;28;20522;-76
2022/12/10 04:29:54;;;;;;;0.20;0.10;;;13.40;99.90;;;;;;20862966;28;20438;-76
2022/12/10 04:39:59;;;;;;;0.20;0.00;;;13.20;99.90;;;;;;20926762;28;20402;-78
2022/12/10 04:50:04;;;;;;;0.20;0.10;;;12.80;99.90;;;;;;20941591;28;20457;-77
2022/12/10 05:00:11;;;;;;;0.20;0.10;;;12.50;99.90;;;;;;20944185;28;20518;-78
2022/12/10 05:10:15;;;;;;;0.20;0.10;;;12.30;99.90;;;;;;20942661;28;20414;-76
2022/12/10 05:20:20;;;;;;;0.20;0.10;;;12.20;99.90;;;;;;20870472;28;20646;-74
2022/12/10 05:30:24;;;;;;;0.20;0.05;;;12.30;99.90;;;;;;20855786;28;20413;-75
2022/12/10 05:40:29;;;;;;;0.20;0.10;;;12.40;99.90;;;;;;20858419;28;20407;-73
2022/12/10 05:50:33;;;;;;;0.20;0.10;;;12.40;99.90;;;;;;20871603;28;20881;-73
2022/12/10 06:00:41;;;;;;;0.20;0.10;;;12.90;99.90;;;;;;20870797;28;20925;-73
2022/12/10 06:10:45;;;;;;;0.20;0.10;;;12.70;99.90;;;;;;20867215;28;20430;-73
2022/12/10 06:20:50;;;;;;;0.20;0.10;;;12.60;99.90;;;;;;20869650;28;20400;-73
2022/12/10 06:30:54;;;;;;;0.20;0.10;;;12.40;99.90;;;;;;20869971;28;20940;-74
2022/12/10 06:40:59;;;;;;;0.20;0.05;;;12.30;99.90;;;;;;20868517;28;20399;-74
2022/12/10 06:51:03;;;;;;;0.20;0.10;;;12.10;99.90;;;;;;20867778;28;20525;-74
2022/12/10 07:01:10;;;;;;;0.20;0.10;;;11.70;99.90;;;;;;20867647;28;21032;-74
2022/12/10 07:11:16;;;;;;;0.20;0.10;;;11.70;99.90;;;;;;20866520;28;20954;-74
2022/12/10 07:21:23;;;;;;;0.20;0.00;;;11.70;99.90;;;;;;20864537;28;20803;-75
2022/12/10 07:31:28;;;;;;;0.20;0.10;;;12.10;99.90;;;;;;20866487;28;20798;-75
2022/12/10 07:41:34;;;;;;;0.20;0.07;;;12.50;99.90;;;;;;20864899;28;20510;-75
2022/12/10 07:51:38;;;;;;;0.20;0.10;;;12.40;99.90;;;;;;20901872;28;20402;-75
2022/12/10 08:01:43;;;;;;;0.20;0.10;;;12.80;99.90;;;;;;20947015;28;20456;-70
2022/12/10 08:11:47;;;;;;;0.20;0.00;;;13.30;99.90;;;;;;20944313;28;20421;-74
2022/12/10 08:21:54;;;;;;;0.20;0.07;;;13.80;99.90;;;;;;20943998;28;20597;-68
2022/12/10 08:31:57;;;;;;;0.20;0.00;;;14.10;99.90;;;;;;20942552;28;20416;-73
2022/12/10 08:42:03;;;;;;;0.20;0.00;;;14.20;99.90;;;;;;20943680;28;20787;-76
2022/12/10 08:52:07;;;;;;;0.20;0.05;;;14.30;99.90;;;;;;20941598;28;20424;-74
2022/12/10 09:02:13;;;;;;;0.20;0.10;;;14.40;99.90;;;;;;20940123;28;20873;-76
2022/12/10 09:12:17;;;;;;;0.20;0.10;;;14.20;99.90;;;;;;20923455;28;20425;-73
2022/12/10 09:22:22;;;;;;;0.20;0.10;;;14.40;99.90;;;;;;20940500;28;20455;-75
2022/12/10 09:32:26;;;;;;;0.20;0.10;;;14.30;99.90;;;;;;20937857;28;20418;-74
2022/12/10 09:42:41;;;;;;;0.20;0.10;;;14.20;99.90;;;;;;20960109;28;20423;-71
2022/12/10 09:52:47;;;;;;;0.20;0.10;;;14.30;99.90;;;;;;20949844;28;20418;-74
2022/12/10 10:02:55;;;;;;;0.20;0.10;;;14.20;99.90;;;;;;20954916;28;20410;-74
2022/12/10 10:13:11;;;;;;;0.20;0.00;;;14.10;99.90;;;;;;20952456;28;20422;-77
2022/12/10 10:23:17;;;;;;;0.20;0.00;;;14.20;99.90;;;;;;20952932;28;20524;-75
2022/12/10 10:33:20;;;;;;;0.20;0.10;;;14.70;99.90;;;;;;20952900;28;20490;-76
2022/12/10 10:43:28;;;;;;;0.20;0.10;;;15.30;99.90;;;;;;20933543;28;20390;-73
2022/12/10 10:53:34;;;;;;;0.20;0.00;;;15.60;99.90;;;;;;20949164;28;20452;-75
2022/12/10 11:03:48;;;;;;;0.20;0.00;;;15.80;99.90;;;;;;20949690;28;20417;-76
2022/12/10 11:13:52;;;;;;;0.20;0.10;;;16.30;99.90;;;;;;20948071;28;20413;-73
2022/12/10 11:23:58;;;;;;;0.20;0.00;;;16.50;99.90;;;;;;20950813;28;20398;-74
2022/12/10 11:34:09;;;;;;;0.20;0.00;;;15.90;99.90;;;;;;20947307;28;20845;-75
2022/12/10 11:44:26;;;;;;;0.20;0.10;;;16.80;99.90;;;;;;20946014;28;20946;-76
2022/12/10 11:54:57;;;;;;;0.20;0.00;;;16.70;99.90;;;;;;20945957;28;20428;-76
2022/12/10 12:05:27;;;;;;;0.20;0.10;;;16.80;99.90;;;;;;20926370;28;20401;-74
2022/12/10 12:15:35;;;;;;;0.20;0.00;;;16.90;99.90;;;;;;20943173;28;20405;-74
2022/12/10 12:25:47;;;;;;;0.20;0.10;;;15.60;99.90;;;;;;20941997;28;20414;-75
2022/12/10 12:35:57;;;;;;;0.20;0.00;;;17.20;99.90;;;;;;20939253;28;20904;-75
2022/12/10 12:46:05;;;;;;;0.20;0.00;;;17.70;99.90;;;;;;20958097;28;21340;-73
2022/12/10 12:56:24;;;;;;;0.20;0.10;;;17.70;99.90;;;;;;20939210;28;20507;-73
2022/12/10 13:06:31;;;;;;;0.20;0.10;;;16.90;99.90;;;;;;20938886;28;20888;-75
2022/12/10 13:16:37;;;;;;;0.20;0.10;;;16.30;99.90;;;;;;20939698;28;20417;-74
2022/12/10 13:27:04;;;;;;;0.20;0.03;;;16.30;99.90;;;;;;20937982;28;20424;-76
2022/12/10 13:37:30;;;;;;;0.20;0.10;;;16.40;99.90;;;;;;20940799;28;20425;-74
2022/12/10 13:47:44;;;;;;;0.20;0.00;;;16.40;99.90;;;;;;20939838;28;20857;-74
2022/12/10 13:58:24;;;;;;;0.20;0.10;;;16.40;99.90;;;;;;20919605;28;20406;-75
2022/12/10 14:08:33;;;;;;;0.20;0.10;;;16.90;99.90;;;;;;20938335;28;20409;-75
2022/12/10 14:18:38;;;;;;;0.20;0.10;;;17.80;99.90;;;;;;20952796;28;20393;-74
2022/12/10 14:28:47;;;;;;;0.20;0.10;;;17.50;99.90;;;;;;20941485;28;20978;-76
2022/12/10 14:38:51;;;;;;;0.20;0.10;;;17.00;99.90;;;;;;20948564;28;20972;-74
2022/12/10 14:48:56;;;;;;;0.20;0.10;;;15.20;99.90;;;;;;20945511;28;20418;-74
2022/12/10 14:59:06;;;;;;;0.20;0.10;;;14.80;99.90;;;;;;20945172;28;20414;-71
2022/12/10 15:09:16;;;;;;;0.20;0.10;;;15.20;99.90;;;;;;20947450;28;20433;-73
2022/12/10 15:19:22;;;;;;;0.20;0.20;;;15.00;99.90;;;;;;20930322;28;20429;-74
2022/12/10 15:29:36;;;;;;;0.20;0.10;;;15.40;99.90;;;;;;20945599;28;20413;-72
2022/12/10 15:39:46;;;;;;;0.20;0.00;;;14.30;99.90;;;;;;20943859;28;20434;-74
2022/12/10 15:49:53;;;;;;;0.20;0.10;;;13.60;99.90;;;;;;20942188;28;20418;-73
2022/12/10 15:59:59;;;;;;;0.20;0.10;;;12.80;99.90;;;;;;20943807;28;20410;-70
2022/12/10 16:10:06;;;;;;;0.20;0.10;;;12.30;99.90;;;;;;20942576;28;20398;-73
2022/12/10 16:20:20;;;;;;;0.20;0.10;;;12.00;99.90;;;;;;20939539;28;20901;-73
2022/12/10 16:30:32;;;;;;;0.20;0.10;;;11.90;99.90;;;;;;20940743;28;20413;-73
2022/12/10 16:40:43;;;;;;;0.20;0.10;;;11.80;99.90;;;;;;20937478;28;20422;-73
2022/12/10 16:50:51;;;;;;;0.20;0.10;;;11.60;99.90;;;;;;20934608;28;20406;-73
2022/12/10 17:00:55;;;;;;;0.20;0.10;;;11.70;99.90;;;;;;20936846;28;20540;-71
2022/12/10 17:21:23;;;;;;;0.20;0.10;;;11.30;99.90;;;;;;20929379;28;20402;-73
2022/12/10 17:31:28;;;;;;;0.20;0.10;;;11.10;99.90;;;;;;20934539;28;20852;-77
2022/12/10 17:41:32;;;;;;;0.20;0.10;;;11.00;99.90;;;;;;20935397;28;20441;-75
2022/12/10 17:51:37;;;;;;;0.20;0.10;;;10.80;99.90;;;;;;20920035;28;20437;-76
2022/12/10 18:01:41;;;;;;;0.20;0.10;;;10.70;99.90;;;;;;20938248;28;20408;-77
2022/12/10 18:11:53;;;;;;;0.20;0.10;;;10.60;99.90;;;;;;20873211;28;20767;-75
2022/12/10 18:21:57;;;;;;;0.20;0.10;;;10.10;99.90;;;;;;20866328;28;20810;-72
2022/12/10 18:32:02;;;;;;;0.20;0.10;;;9.90;99.90;;;;;;20865110;28;20458;-74
2022/12/10 18:42:06;;;;;;;0.20;0.10;;;9.60;99.90;;;;;;20864304;28;20739;-74
2022/12/10 18:52:12;;;;;;;0.20;0.10;;;9.30;99.90;;;;;;20864249;28;20407;-73
2022/12/10 19:02:16;;;;;;;0.20;0.10;;;9.20;99.90;;;;;;20860291;28;20419;-71
2022/12/10 19:12:21;;;;;;;0.20;0.10;;;9.20;99.90;;;;;;20863860;28;20890;-76
2022/12/10 19:22:25;;;;;;;0.20;0.10;;;9.00;99.90;;;;;;20877261;28;20423;-72
2022/12/10 19:32:30;;;;;;;0.20;0.03;;;9.10;99.90;;;;;;20860517;28;21263;-72
2022/12/10 19:42:34;;;;;;;0.20;0.10;;;9.20;99.90;;;;;;20858856;28;20438;-73
2022/12/10 19:52:39;;;;;;;0.20;0.10;;;9.10;99.90;;;;;;20859956;28;20729;-73
2022/12/10 20:02:43;;;;;;;0.20;0.10;;;8.80;99.90;;;;;;20855923;28;20411;-73
2022/12/10 20:12:49;;;;;;;0.20;0.10;;;8.90;99.90;;;;;;20873619;28;21108;-73
2022/12/10 20:22:53;;;;;;;0.20;0.10;;;8.80;99.90;;;;;;20873581;28;20412;-72
2022/12/10 20:32:58;;;;;;;0.20;0.10;;;8.50;99.90;;;;;;20857749;28;20420;-73
2022/12/10 20:43:22;;;;;;;0.20;0.10;;;8.40;99.90;;;;;;20853166;28;20435;-74
2022/12/10 20:53:27;;;;;;;0.20;0.10;;;8.20;99.90;;;;;;20856395;28;20422;-73
2022/12/10 21:03:34;;;;;;;0.20;0.10;;;7.90;99.90;;;;;;20908638;28;20405;-73
2022/12/10 21:13:39;;;;;;;0.20;0.10;;;7.70;99.90;;;;;;20941385;28;20494;-75
2022/12/10 21:23:43;;;;;;;0.20;0.10;;;7.10;99.90;;;;;;20938714;28;20499;-77
2022/12/10 21:33:49;;;;;;;0.20;0.10;;;7.30;99.90;;;;;;20938237;28;20423;-75
2022/12/10 21:43:53;;;;;;;0.20;0.10;;;7.30;99.90;;;;;;20934457;28;20402;-75
2022/12/10 21:54:01;;;;;;;0.20;0.10;;;7.10;99.90;;;;;;20928439;28;20413;-74
2022/12/10 22:04:05;;;;;;;0.20;0.10;;;6.70;99.90;;;;;;20931208;28;20833;-74
2022/12/10 22:14:10;;;;;;;0.20;0.10;;;6.70;99.90;;;;;;20914225;28;20777;-76
2022/12/10 22:24:15;;;;;;;0.20;0.10;;;6.80;99.90;;;;;;20917456;28;20402;-74
2022/12/10 22:34:20;;;;;;;0.20;0.10;;;6.50;99.90;;;;;;20933305;28;20425;-76
2022/12/10 22:44:24;;;;;;;0.20;0.10;;;6.60;99.90;;;;;;20933050;28;20959;-75
2022/12/10 22:54:30;;;;;;;0.20;0.10;;;6.30;99.90;;;;;;20940751;28;20418;-76
2022/12/10 23:04:34;;;;;;;0.20;0.10;;;6.30;99.90;;;;;;20948087;28;20472;-76
2022/12/10 23:14:40;;;;;;;0.20;0.10;;;6.00;99.90;;;;;;20945387;28;20458;-76
2022/12/10 23:24:44;;;;;;;0.20;0.10;;;6.00;99.90;;;;;;20946442;28;20470;-76
2022/12/10 23:34:49;;;;;;;0.20;0.10;;;6.00;99.90;;;;;;20927568;28;20957;-74
2022/12/10 23:44:53;;;;;;;0.20;0.10;;;6.00;99.90;;;;;;20941890;28;20456;-77
2022/12/10 23:54:59;;;;;;;0.20;0.10;;;6.50;99.90;;;;;;20943196;28;20760;-73
